Uasc Ramadi — A8UL3 — position and weather

sailwx.info

Track history (hours):
 
Tides and Currents Weather Stations Pressure Air Temp Water Temp Dewpoint Dewpoint Depression Visibility Wind Speed Wind Dir Waves Ship Positions

Uasc Ramadi

Last reported at 2017-Dec-11 06:00 UTC. Time now 2017-Dec-13 18:58 UTC.
Position N 36°18' E 016°48'.

Length 262 m; draft 10 m.

Type: Cargo ship. MMSI: 636017820.

Wind from 210 at 14 knots

Barometer 1021.0 mb
Air temperature 15.7 ° C
Visibility: greater than 10.8 NM
Dewpoint 8.9 ° C
Water temperature 17.9 ° C

Date/timePositionNaut miles runAvg speedWind from/ knotsBaromVisibWave heightAir tempDewpointWater temp
2017-Dec-11 06:00N 36°18' E 016°48'9413.8 210 / 141021.010.8 15.7 8.917.9
2017-Dec-10 23:11N 36°26' E 014°52'315.1
2017-Dec-10 23:00N 36°26' E 014°48'815.4
2017-Dec-10 22:29N 36°26' E 014°38'815.4
2017-Dec-10 22:00N 36°27' E 014°29'815.4
2017-Dec-10 21:30N 36°31' E 014°20'815.5
2017-Dec-10 21:00N 36°34' E 014°11'815.7
2017-Dec-10 20:30N 36°36' E 014°03'4216.7
2017-Dec-10 18:00N 36°48' E 013°12'17714.8 210 / 41021.210.8 14.5 6.217.9
2017-Dec-10 06:00N 37°48' E 009°42'18115.1 310 / 91022.010.8 13.2 7.316.4
2017-Dec-09 18:00N 37°36' E 005°54'18415.3 010 / 161023.010.8 13.5 7.417.4
2017-Dec-09 06:00N 37°06' E 002°06'17314.6 260 / 141023.010.8 16.514.817.4
2017-Dec-08 18:07N 36°26' W 001°24'26714.4
2017-Dec-07 23:33N 35°09' W 006°40'8515.4
2017-Dec-07 18:00N 33°54' W 007°30'100 4.2 010 / 121028.010.8 18.0 5.818.0
2017-Dec-06 18:00N 35°24' W 008°24'17214.3 060 / 171030.010.8 17.0 9.420.0
2017-Dec-06 06:00N 38°00' W 009°54'15613.0 080 / 61032.510.8 14.0 17.4
2017-Dec-05 18:00N 40°36' W 010°06'31012.9 090 / 81036.010.8 13.5 9.616.0
2017-Dec-04 18:00N 45°36' W 008°18'17614.7 090 / 101038.010.8 13.5 9.614.0
2017-Dec-04 06:00N 48°12' W 006°18'11813.9 330 / 61036.010.8 10.5 6.213.0
2017-Dec-03 21:30N 49°32' W 004°06'815.4
2017-Dec-03 20:59N 49°36' W 003°55'714.9
2017-Dec-03 20:30N 49°39' W 003°46'714.2
2017-Dec-03 20:00N 49°43' W 003°37'713.5
2017-Dec-03 19:30N 49°47' W 003°28'612.9
2017-Dec-03 19:00N 49°50' W 003°19'612.5
2017-Dec-03 18:30N 49°53' W 003°10'612.4
2017-Dec-03 18:00N 49°56' W 003°02'612.5
2017-Dec-03 17:30N 49°59' W 002°53'612.8
2017-Dec-03 17:00N 50°01' W 002°44'713.4
2017-Dec-03 16:30N 50°03' W 002°34'2315.3
2017-Dec-03 15:00N 50°10' W 002°00'817.2
2017-Dec-03 14:30N 50°13' W 001°48'917.6
2017-Dec-03 14:01N 50°15' W 001°34'917.6
2017-Dec-03 13:30N 50°18' W 001°21'917.8
2017-Dec-03 13:00N 50°20' W 001°08'917.6
2017-Dec-03 12:30N 50°23' W 000°55'916.4
2017-Dec-03 11:56N 50°26' W 000°40'615.5
2017-Dec-03 11:30N 50°28' W 000°31'815.1
2017-Dec-03 11:00N 50°30' W 000°19'714.3
2017-Dec-03 10:30N 50°30' W 000°08'713.8
2017-Dec-03 10:00N 50°30' E 000°03'713.3
2017-Dec-03 09:30N 50°31' E 000°13'612.7
2017-Dec-03 09:00N 50°33' E 000°23'612.3
2017-Dec-03 08:30N 50°35' E 000°32'612.1
2017-Dec-03 08:00N 50°38' E 000°40'713.3
2017-Dec-03 07:30N 50°43' E 000°47'713.9
2017-Dec-03 07:00N 50°47' E 000°56'815.2
2017-Dec-03 06:30N 50°52' E 001°06'816.2
2017-Dec-03 06:00N 50°57' E 001°15'817.0
2017-Dec-03 05:30N 51°03' E 001°25'816.8
2017-Dec-03 05:00N 51°08' E 001°36'816.0
2017-Dec-03 04:31N 51°13' E 001°46'714.8
2017-Dec-03 04:00N 51°19' E 001°52'713.7
2017-Dec-03 03:30N 51°25' E 001°58'612.9
2017-Dec-03 03:01N 51°23' E 002°08'713.5
2017-Dec-03 02:30N 51°20' E 002°18'713.0
2017-Dec-03 02:00N 51°23' E 002°28'712.8
2017-Dec-03 01:28N 51°23' E 002°39'611.3
2017-Dec-03 00:56N 51°25' E 002°48'511.8
2017-Dec-03 00:30N 51°25' E 002°56'715.1
2017-Dec-03 00:00N 51°24' E 003°08'713.6
2017-Dec-02 23:30N 51°25' E 003°19'611.3
2017-Dec-02 23:00N 51°25' E 003°28'5 9.5
2017-Dec-02 22:30N 51°26' E 003°35'4 9.0
2017-Dec-02 22:00N 51°25' E 003°42'612.8
2017-Dec-02 21:30N 51°21' E 003°50'612.8
2017-Dec-02 21:01N 51°25' E 003°58'4 8.9
2017-Dec-02 20:31N 51°22' E 004°04'611.6
2017-Dec-02 20:00N 51°23' E 004°13'5 9.4
2017-Dec-02 19:30N 51°19' E 004°16'2 3.9
2017-Dec-02 19:00N 51°17' E 004°16'0 0.0
2017-Dec-02 18:30N 51°17' E 004°16'0 0.0
2017-Dec-02 18:00N 51°17' E 004°16'0 0.0
2017-Dec-02 17:30N 51°17' E 004°16'0 0.0
2017-Dec-02 17:00N 51°17' E 004°16'0 0.0
2017-Dec-02 16:30N 51°17' E 004°16'0 0.0
2017-Dec-02 16:00N 51°17' E 004°16'0 0.0
2017-Dec-02 15:30N 51°17' E 004°16'0 0.0
2017-Dec-02 15:00N 51°17' E 004°16'0 0.0
2017-Dec-02 14:27N 51°17' E 004°16'0 0.0
2017-Dec-02 14:00N 51°17' E 004°16'0 0.0
2017-Dec-02 13:30N 51°17' E 004°16'0 0.0
2017-Dec-02 13:00N 51°17' E 004°16'0 0.0
2017-Dec-02 12:27N 51°17' E 004°16'0 0.0
2017-Dec-02 12:00N 51°17' E 004°16'0 0.0
2017-Dec-02 11:30N 51°17' E 004°16'0 0.0
2017-Dec-02 11:00N 51°17' E 004°16'0 0.0
2017-Dec-02 10:30N 51°17' E 004°16'0 0.0
2017-Dec-02 09:57N 51°17' E 004°16'0 0.0
2017-Dec-02 09:30N 51°17' E 004°16'0 0.0
2017-Dec-02 09:00N 51°17' E 004°16'0 0.0
2017-Dec-02 08:30N 51°17' E 004°16'0 0.0
2017-Dec-02 08:00N 51°17' E 004°16'0 0.0
2017-Dec-02 07:30N 51°17' E 004°16'0 0.0
2017-Dec-02 07:00N 51°17' E 004°16'0 0.0
2017-Dec-02 06:30N 51°17' E 004°16'0 0.0
2017-Dec-02 06:00N 51°17' E 004°16'0 0.0
2017-Dec-02 05:30N 51°17' E 004°16'0 0.0
2017-Dec-02 04:57N 51°17' E 004°16'0 0.0
2017-Dec-02 04:30N 51°17' E 004°16'0 0.0
2017-Dec-02 04:00N 51°17' E 004°16'0 0.3
2017-Dec-02 03:31N 51°18' E 004°16'1 2.4
2017-Dec-02 03:00N 51°19' E 004°16'3 5.3
2017-Dec-02 02:30N 51°21' E 004°15'5 9.3
2017-Dec-02 02:00N 51°22' E 004°08'612.0
2017-Dec-02 01:30N 51°26' E 004°00'714.2
2017-Dec-02 01:01N 51°21' E 003°52'713.6
2017-Dec-02 00:30N 51°24' E 003°43'510.7
2017-Dec-02 00:00N 51°25' E 003°34'815.4
2017-Dec-01 23:31N 51°24' E 003°22'1019.3
2017-Dec-01 23:01N 51°24' E 003°07'510.7
2017-Dec-01 22:31N 51°28' E 003°02'816.8
2017-Dec-01 22:01N 51°35' E 003°10'816.1
2017-Dec-01 21:30N 51°43' E 003°15'611.4
2017-Dec-01 20:59N 51°49' E 003°16'613.1
2017-Dec-01 20:30N 51°55' E 003°16'7612.9
2017-Dec-01 14:34N 53°04' E 004°11'112.2
2017-Dec-01 14:30N 53°04' E 004°13'812.5
2017-Dec-01 13:54N 53°09' E 004°22'411.3
2017-Dec-01 13:30N 53°13' E 004°26'3011.6
2017-Dec-01 10:55N 53°34' E 005°01'513.2
2017-Dec-01 10:30N 53°36' E 005°10'712.9
2017-Dec-01 09:58N 53°39' E 005°21'613.0
2017-Dec-01 09:30N 53°41' E 005°31'  
Track history (hours):
 
Tides and Currents Weather Stations Pressure Air Temp Water Temp Dewpoint Dewpoint Depression Visibility Wind Speed Wind Dir Waves Ship Positions

Uasc Ramadi

Last reported at 2017-Dec-11 06:00 UTC. Time now 2017-Dec-13 18:58 UTC.
Position N 36°18' E 016°48'.

Length 262 m; draft 10 m.

Type: Cargo ship. MMSI: 636017820.

Wind from 210 at 14 knots

Barometer 1021.0 mb
Air temperature 15.7 ° C
Visibility: greater than 10.8 NM
Dewpoint 8.9 ° C
Water temperature 17.9 ° C

Date/timePositionNaut miles runAvg speedWind from/ knotsBaromVisibWave heightAir tempDewpointWater temp
2017-Dec-11 06:00N 36°18' E 016°48'9413.8 210 / 141021.010.8 15.7 8.917.9
2017-Dec-10 23:11N 36°26' E 014°52'315.1
2017-Dec-10 23:00N 36°26' E 014°48'815.4
2017-Dec-10 22:29N 36°26' E 014°38'815.4
2017-Dec-10 22:00N 36°27' E 014°29'815.4
2017-Dec-10 21:30N 36°31' E 014°20'815.5
2017-Dec-10 21:00N 36°34' E 014°11'815.7
2017-Dec-10 20:30N 36°36' E 014°03'4216.7
2017-Dec-10 18:00N 36°48' E 013°12'17714.8 210 / 41021.210.8 14.5 6.217.9
2017-Dec-10 06:00N 37°48' E 009°42'18115.1 310 / 91022.010.8 13.2 7.316.4
2017-Dec-09 18:00N 37°36' E 005°54'18415.3 010 / 161023.010.8 13.5 7.417.4
2017-Dec-09 06:00N 37°06' E 002°06'17314.6 260 / 141023.010.8 16.514.817.4
2017-Dec-08 18:07N 36°26' W 001°24'26714.4
2017-Dec-07 23:33N 35°09' W 006°40'8515.4
2017-Dec-07 18:00N 33°54' W 007°30'100 4.2 010 / 121028.010.8 18.0 5.818.0
2017-Dec-06 18:00N 35°24' W 008°24'17214.3 060 / 171030.010.8 17.0 9.420.0
2017-Dec-06 06:00N 38°00' W 009°54'15613.0 080 / 61032.510.8 14.0 17.4
2017-Dec-05 18:00N 40°36' W 010°06'31012.9 090 / 81036.010.8 13.5 9.616.0
2017-Dec-04 18:00N 45°36' W 008°18'17614.7 090 / 101038.010.8 13.5 9.614.0
2017-Dec-04 06:00N 48°12' W 006°18'11813.9 330 / 61036.010.8 10.5 6.213.0
2017-Dec-03 21:30N 49°32' W 004°06'815.4
2017-Dec-03 20:59N 49°36' W 003°55'714.9
2017-Dec-03 20:30N 49°39' W 003°46'714.2
2017-Dec-03 20:00N 49°43' W 003°37'713.5
2017-Dec-03 19:30N 49°47' W 003°28'612.9
2017-Dec-03 19:00N 49°50' W 003°19'612.5
2017-Dec-03 18:30N 49°53' W 003°10'612.4
2017-Dec-03 18:00N 49°56' W 003°02'612.5
2017-Dec-03 17:30N 49°59' W 002°53'612.8
2017-Dec-03 17:00N 50°01' W 002°44'713.4
2017-Dec-03 16:30N 50°03' W 002°34'2315.3
2017-Dec-03 15:00N 50°10' W 002°00'817.2
2017-Dec-03 14:30N 50°13' W 001°48'917.6
2017-Dec-03 14:01N 50°15' W 001°34'917.6
2017-Dec-03 13:30N 50°18' W 001°21'917.8
2017-Dec-03 13:00N 50°20' W 001°08'917.6
2017-Dec-03 12:30N 50°23' W 000°55'916.4
2017-Dec-03 11:56N 50°26' W 000°40'615.5
2017-Dec-03 11:30N 50°28' W 000°31'815.1
2017-Dec-03 11:00N 50°30' W 000°19'714.3
2017-Dec-03 10:30N 50°30' W 000°08'713.8
2017-Dec-03 10:00N 50°30' E 000°03'713.3
2017-Dec-03 09:30N 50°31' E 000°13'612.7
2017-Dec-03 09:00N 50°33' E 000°23'612.3
2017-Dec-03 08:30N 50°35' E 000°32'612.1
2017-Dec-03 08:00N 50°38' E 000°40'713.3
2017-Dec-03 07:30N 50°43' E 000°47'713.9
2017-Dec-03 07:00N 50°47' E 000°56'815.2
2017-Dec-03 06:30N 50°52' E 001°06'816.2
2017-Dec-03 06:00N 50°57' E 001°15'817.0
2017-Dec-03 05:30N 51°03' E 001°25'816.8
2017-Dec-03 05:00N 51°08' E 001°36'816.0
2017-Dec-03 04:31N 51°13' E 001°46'714.8
2017-Dec-03 04:00N 51°19' E 001°52'713.7
2017-Dec-03 03:30N 51°25' E 001°58'612.9
2017-Dec-03 03:01N 51°23' E 002°08'713.5
2017-Dec-03 02:30N 51°20' E 002°18'713.0
2017-Dec-03 02:00N 51°23' E 002°28'712.8
2017-Dec-03 01:28N 51°23' E 002°39'611.3
2017-Dec-03 00:56N 51°25' E 002°48'511.8
2017-Dec-03 00:30N 51°25' E 002°56'715.1
2017-Dec-03 00:00N 51°24' E 003°08'713.6
2017-Dec-02 23:30N 51°25' E 003°19'611.3
2017-Dec-02 23:00N 51°25' E 003°28'5 9.5
2017-Dec-02 22:30N 51°26' E 003°35'4 9.0
2017-Dec-02 22:00N 51°25' E 003°42'612.8
2017-Dec-02 21:30N 51°21' E 003°50'612.8
2017-Dec-02 21:01N 51°25' E 003°58'4 8.9
2017-Dec-02 20:31N 51°22' E 004°04'611.6
2017-Dec-02 20:00N 51°23' E 004°13'5 9.4
2017-Dec-02 19:30N 51°19' E 004°16'2 3.9
2017-Dec-02 19:00N 51°17' E 004°16'0 0.0
2017-Dec-02 18:30N 51°17' E 004°16'0 0.0
2017-Dec-02 18:00N 51°17' E 004°16'0 0.0
2017-Dec-02 17:30N 51°17' E 004°16'0 0.0
2017-Dec-02 17:00N 51°17' E 004°16'0 0.0
2017-Dec-02 16:30N 51°17' E 004°16'0 0.0
2017-Dec-02 16:00N 51°17' E 004°16'0 0.0
2017-Dec-02 15:30N 51°17' E 004°16'0 0.0
2017-Dec-02 15:00N 51°17' E 004°16'0 0.0
2017-Dec-02 14:27N 51°17' E 004°16'0 0.0
2017-Dec-02 14:00N 51°17' E 004°16'0 0.0
2017-Dec-02 13:30N 51°17' E 004°16'0 0.0
2017-Dec-02 13:00N 51°17' E 004°16'0 0.0
2017-Dec-02 12:27N 51°17' E 004°16'0 0.0
2017-Dec-02 12:00N 51°17' E 004°16'0 0.0
2017-Dec-02 11:30N 51°17' E 004°16'0 0.0
2017-Dec-02 11:00N 51°17' E 004°16'0 0.0
2017-Dec-02 10:30N 51°17' E 004°16'0 0.0
2017-Dec-02 09:57N 51°17' E 004°16'0 0.0
2017-Dec-02 09:30N 51°17' E 004°16'0 0.0
2017-Dec-02 09:00N 51°17' E 004°16'0 0.0
2017-Dec-02 08:30N 51°17' E 004°16'0 0.0
2017-Dec-02 08:00N 51°17' E 004°16'0 0.0
2017-Dec-02 07:30N 51°17' E 004°16'0 0.0
2017-Dec-02 07:00N 51°17' E 004°16'0 0.0
2017-Dec-02 06:30N 51°17' E 004°16'0 0.0
2017-Dec-02 06:00N 51°17' E 004°16'0 0.0
2017-Dec-02 05:30N 51°17' E 004°16'0 0.0
2017-Dec-02 04:57N 51°17' E 004°16'0 0.0
2017-Dec-02 04:30N 51°17' E 004°16'0 0.0
2017-Dec-02 04:00N 51°17' E 004°16'0 0.3
2017-Dec-02 03:31N 51°18' E 004°16'1 2.4
2017-Dec-02 03:00N 51°19' E 004°16'3 5.3
2017-Dec-02 02:30N 51°21' E 004°15'5 9.3
2017-Dec-02 02:00N 51°22' E 004°08'612.0
2017-Dec-02 01:30N 51°26' E 004°00'714.2
2017-Dec-02 01:01N 51°21' E 003°52'713.6
2017-Dec-02 00:30N 51°24' E 003°43'510.7
2017-Dec-02 00:00N 51°25' E 003°34'815.4
2017-Dec-01 23:31N 51°24' E 003°22'1019.3
2017-Dec-01 23:01N 51°24' E 003°07'510.7
2017-Dec-01 22:31N 51°28' E 003°02'816.8
2017-Dec-01 22:01N 51°35' E 003°10'816.1
2017-Dec-01 21:30N 51°43' E 003°15'611.4
2017-Dec-01 20:59N 51°49' E 003°16'613.1
2017-Dec-01 20:30N 51°55' E 003°16'7612.9
2017-Dec-01 14:34N 53°04' E 004°11'112.2
2017-Dec-01 14:30N 53°04' E 004°13'812.5
2017-Dec-01 13:54N 53°09' E 004°22'411.3
2017-Dec-01 13:30N 53°13' E 004°26'3011.6
2017-Dec-01 10:55N 53°34' E 005°01'513.2
2017-Dec-01 10:30N 53°36' E 005°10'712.9
2017-Dec-01 09:58N 53°39' E 005°21'613.0
2017-Dec-01 09:30N 53°41' E 005°31'  

Dump ship's entire track history